Time,TemperatureF,DewpointF,PressureIn,WindDirection,WindDirectionDegrees,WindSpeedMPH,WindSpeedGustMPH,Humidity,HourlyPrecipIn,Conditions,Clouds,dailyrainin,SoftwareType,DateUTC
2013-01-25 00:03:00,27.0,10.0,30.49,NNE,31,0.0,4.0,48,0.00,,,0.00,,2013-01-25 05:03:00,
2013-01-25 00:12:00,26.0,10.0,30.49,NNE,31,0.0,0.0,50,0.00,,,0.00,,2013-01-25 05:12:00,
2013-01-25 00:22:00,26.0,10.0,30.49,NNE,31,0.0,0.0,50,0.00,,,0.00,,2013-01-25 05:22:00,
2013-01-25 00:32:00,26.0,11.0,30.50,NNE,31,0.0,0.0,52,0.00,,,0.00,,2013-01-25 05:32:00,
2013-01-25 00:43:00,26.0,11.0,30.50,NNE,31,0.0,0.0,52,0.00,,,0.00,,2013-01-25 05:43:00,
2013-01-25 00:52:00,25.0,12.0,30.50,NNE,31,0.0,0.0,56,0.00,,,0.00,,2013-01-25 05:52:00,
2013-01-25 01:02:00,25.0,13.0,30.50,NNE,31,0.0,0.0,59,0.00,,,0.00,,2013-01-25 06:02:00,
2013-01-25 01:11:00,25.0,13.0,30.50,NNE,31,0.0,0.0,59,0.00,,,0.00,,2013-01-25 06:11:00,
2013-01-25 01:21:00,25.0,13.0,30.50,NNE,31,0.0,0.0,59,0.00,,,0.00,,2013-01-25 06:21:00,
2013-01-25 01:32:00,24.0,13.0,30.50,NNE,31,0.0,0.0,61,0.00,,,0.00,,2013-01-25 06:32:00,
2013-01-25 01:42:00,24.0,11.0,30.50,NNE,31,0.0,0.0,58,0.00,,,0.00,,2013-01-25 06:42:00,
2013-01-25 01:52:00,24.0,11.0,30.50,NNE,31,0.0,0.0,58,0.00,,,0.00,,2013-01-25 06:52:00,
2013-01-25 02:02:00,24.0,12.0,30.50,NNE,31,0.0,0.0,59,0.00,,,0.00,,2013-01-25 07:02:00,
2013-01-25 02:11:00,23.0,12.0,30.50,NNE,31,0.0,0.0,63,0.00,,,0.00,,2013-01-25 07:11:00,
2013-01-25 02:21:00,23.0,12.0,30.50,NNE,31,0.0,0.0,63,0.00,,,0.00,,2013-01-25 07:21:00,
2013-01-25 02:32:00,23.0,12.0,30.51,NNE,31,0.0,0.0,62,0.00,,,0.00,,2013-01-25 07:32:00,
2013-01-25 02:42:00,23.0,11.0,30.51,NNE,31,0.0,0.0,59,0.00,,,0.00,,2013-01-25 07:42:00,
2013-01-25 02:52:00,23.0,11.0,30.51,NNE,31,0.0,0.0,59,0.00,,,0.00,,2013-01-25 07:52:00,
2013-01-25 03:02:00,23.0,12.0,30.51,NNE,31,0.0,0.0,61,0.00,,,0.00,,2013-01-25 08:02:00,
2013-01-25 03:11:00,23.0,13.0,30.52,NNE,31,0.0,0.0,64,0.00,,,0.00,,2013-01-25 08:11:00,
2013-01-25 03:21:00,23.0,13.0,30.52,NNE,31,0.0,0.0,64,0.00,,,0.00,,2013-01-25 08:21:00,
2013-01-25 03:32:00,23.0,12.0,30.51,NNE,31,0.0,0.0,63,0.00,,,0.00,,2013-01-25 08:32:00,
2013-01-25 03:42:00,23.0,12.0,30.51,NNE,31,0.0,0.0,63,0.00,,,0.00,,2013-01-25 08:42:00,
2013-01-25 03:52:00,22.0,11.0,30.51,NNE,31,0.0,0.0,63,0.00,,,0.00,,2013-01-25 08:52:00,
2013-01-25 04:02:00,22.0,12.0,30.50,NNE,31,0.0,0.0,64,0.00,,,0.00,,2013-01-25 09:02:00,
2013-01-25 04:11:00,22.0,11.0,30.49,NNE,31,0.0,0.0,62,0.00,,,0.00,,2013-01-25 09:11:00,
2013-01-25 04:21:00,22.0,11.0,30.49,NNE,31,0.0,0.0,62,0.00,,,0.00,,2013-01-25 09:21:00,
2013-01-25 04:31:00,22.0,11.0,30.48,NNE,31,0.0,0.0,63,0.00,,,0.00,,2013-01-25 09:31:00,
2013-01-25 04:42:00,22.0,11.0,30.48,NNE,31,0.0,0.0,63,0.00,,,0.00,,2013-01-25 09:42:00,
2013-01-25 04:52:00,22.0,11.0,30.48,NNE,31,0.0,0.0,62,0.00,,,0.00,,2013-01-25 09:52:00,
2013-01-25 05:02:00,22.0,10.0,30.49,NNE,31,0.0,0.0,60,0.00,,,0.00,,2013-01-25 10:02:00,
2013-01-25 05:12:00,23.0,11.0,30.50,NNE,31,0.0,0.0,60,0.00,,,0.00,,2013-01-25 10:12:00,
2013-01-25 05:21:00,23.0,11.0,30.50,NNE,31,0.0,0.0,60,0.00,,,0.00,,2013-01-25 10:21:00,
2013-01-25 05:32:00,23.0,11.0,30.50,NNE,31,0.0,0.0,59,0.00,,,0.00,,2013-01-25 10:32:00,
2013-01-25 05:42:00,23.0,11.0,30.50,NNE,31,0.0,0.0,59,0.00,,,0.00,,2013-01-25 10:42:00,
2013-01-25 05:52:00,23.0,12.0,30.49,NNE,31,0.0,0.0,62,0.00,,,0.00,,2013-01-25 10:52:00,
2013-01-25 06:02:00,23.0,12.0,30.48,NNE,31,0.0,0.0,61,0.00,,,0.00,,2013-01-25 11:02:00,
2013-01-25 06:11:00,23.0,12.0,30.48,NNE,31,0.0,0.0,61,0.00,,,0.00,,2013-01-25 11:11:00,
2013-01-25 06:22:00,24.0,12.0,30.48,NNE,31,0.0,0.0,60,0.00,,,0.00,,2013-01-25 11:22:00,
2013-01-25 06:32:00,24.0,13.0,30.49,NNE,31,0.0,0.0,61,0.00,,,0.00,,2013-01-25 11:32:00,
2013-01-25 06:42:00,24.0,13.0,30.49,NNE,31,0.0,0.0,61,0.00,,,0.00,,2013-01-25 11:42:00,
2013-01-25 06:52:00,23.0,13.0,30.48,NNE,31,0.0,0.0,64,0.00,,,0.00,,2013-01-25 11:52:00,
2013-01-25 07:02:00,23.0,12.0,30.46,NNE,31,0.0,0.0,62,0.00,,,0.00,,2013-01-25 12:02:00,
2013-01-25 07:12:00,23.0,12.0,30.46,NNE,31,0.0,0.0,62,0.00,,,0.00,,2013-01-25 12:12:00,
2013-01-25 07:22:00,24.0,13.0,30.48,NNE,31,0.0,0.0,62,0.00,,,0.00,,2013-01-25 12:22:00,
2013-01-25 07:32:00,24.0,13.0,30.46,NNE,31,0.0,0.0,61,0.00,,,0.00,,2013-01-25 12:32:00,
2013-01-25 07:42:00,24.0,13.0,30.46,NNE,31,0.0,0.0,61,0.00,,,0.00,,2013-01-25 12:42:00,
2013-01-25 07:53:00,24.0,13.0,30.48,NNE,31,0.0,0.0,62,0.00,,,0.00,,2013-01-25 12:53:00,
2013-01-25 08:02:00,25.0,13.0,30.47,NNE,31,0.0,0.0,61,0.00,,,0.00,,2013-01-25 13:02:00,
2013-01-25 08:12:00,25.0,13.0,30.47,NNE,31,0.0,0.0,61,0.00,,,0.00,,2013-01-25 13:12:00,
2013-01-25 08:22:00,24.0,12.0,30.47,ESE,115,0.0,8.0,59,0.00,,,0.00,,2013-01-25 13:22:00,
2013-01-25 08:32:00,25.0,13.0,30.47,East,89,0.0,6.0,59,0.00,,,0.00,,2013-01-25 13:32:00,
2013-01-25 08:42:00,25.0,13.0,30.47,East,89,0.0,6.0,59,0.00,,,0.00,,2013-01-25 13:42:00,
2013-01-25 08:53:00,25.0,12.0,30.47,ESE,111,3.0,5.0,57,0.00,,,0.00,,2013-01-25 13:53:00,
2013-01-25 09:03:00,25.0,14.0,30.47,ESE,122,1.0,10.0,62,0.00,,,0.00,,2013-01-25 14:03:00,
2013-01-25 09:12:00,25.0,14.0,30.47,ESE,122,1.0,10.0,62,0.00,,,0.00,,2013-01-25 14:12:00,
2013-01-25 09:23:00,24.0,14.0,30.46,ESE,121,0.0,6.0,65,0.00,,,0.00,,2013-01-25 14:23:00,
2013-01-25 09:33:00,24.0,13.0,30.47,ESE,108,3.0,6.0,61,0.00,,,0.00,,2013-01-25 14:33:00,
2013-01-25 09:42:00,24.0,13.0,30.47,ESE,108,3.0,6.0,61,0.00,,,0.00,,2013-01-25 14:42:00,
2013-01-25 09:53:00,24.0,14.0,30.44,East,96,0.0,0.0,65,0.00,,,0.00,,2013-01-25 14:53:00,
2013-01-25 10:02:00,24.0,14.0,30.42,East,96,0.0,0.0,66,0.00,,,0.00,,2013-01-25 15:02:00,
2013-01-25 10:12:00,24.0,14.0,30.42,East,96,0.0,0.0,66,0.00,,,0.00,,2013-01-25 15:12:00,
2013-01-25 10:22:00,24.0,12.0,30.42,North,359,0.0,0.0,59,0.00,,,0.00,,2013-01-25 15:22:00,
2013-01-25 10:32:00,24.0,12.0,30.40,North,359,0.0,6.0,60,0.00,,,0.00,,2013-01-25 15:32:00,
2013-01-25 10:42:00,24.0,12.0,30.40,North,359,0.0,6.0,60,0.00,,,0.00,,2013-01-25 15:42:00,
2013-01-25 10:53:00,25.0,15.0,30.40,East,82,0.0,2.0,66,0.00,,,0.00,,2013-01-25 15:53:00,
2013-01-25 11:03:00,25.0,15.0,30.38,South,187,1.0,6.0,64,0.00,,,0.00,,2013-01-25 16:03:00,
2013-01-25 11:12:00,25.0,15.0,30.38,South,187,1.0,6.0,64,0.00,,,0.00,,2013-01-25 16:12:00,
2013-01-25 11:23:00,24.0,13.0,30.38,ESE,113,1.0,3.0,63,0.00,,,0.00,,2013-01-25 16:23:00,
2013-01-25 11:32:00,24.0,15.0,30.37,ENE,77,0.0,4.0,68,0.00,,,0.00,,2013-01-25 16:32:00,
2013-01-25 11:43:00,24.0,15.0,30.37,ENE,77,0.0,4.0,68,0.00,,,0.00,,2013-01-25 16:43:00,
2013-01-25 11:53:00,24.0,16.0,30.35,ENE,77,0.0,0.0,71,0.00,,,0.00,,2013-01-25 16:53:00,
2013-01-25 12:02:00,24.0,17.0,30.34,ENE,77,0.0,0.0,74,0.00,,,0.00,,2013-01-25 17:02:00,
2013-01-25 12:12:00,24.0,17.0,30.34,ENE,77,0.0,0.0,74,0.00,,,0.00,,2013-01-25 17:12:00,
2013-01-25 12:22:00,24.0,16.0,30.32,SSE,158,0.0,2.0,72,0.00,,,0.00,,2013-01-25 17:22:00,
2013-01-25 12:33:00,24.0,16.0,30.29,SSE,158,0.0,0.0,72,0.00,,,0.00,,2013-01-25 17:33:00,
2013-01-25 12:43:00,24.0,16.0,30.29,SSE,158,0.0,0.0,72,0.00,,,0.00,,2013-01-25 17:43:00,
2013-01-25 12:53:00,25.0,18.0,30.27,ENE,77,0.0,4.0,74,0.00,,,0.00,,2013-01-25 17:53:00,
2013-01-25 13:03:00,25.0,17.0,30.24,South,170,0.0,2.0,70,0.00,,,0.00,,2013-01-25 18:03:00,
2013-01-25 13:12:00,25.0,17.0,30.24,South,170,0.0,2.0,70,0.00,,,0.00,,2013-01-25 18:12:00,
2013-01-25 13:23:00,25.0,17.0,30.25,ENE,58,0.0,4.0,72,0.00,,,0.00,,2013-01-25 18:23:00,
2013-01-25 13:33:00,25.0,17.0,30.22,ESE,111,0.0,5.0,72,0.00,,,0.00,,2013-01-25 18:33:00,
2013-01-25 13:42:00,25.0,17.0,30.22,ESE,111,0.0,5.0,72,0.00,,,0.00,,2013-01-25 18:42:00,
2013-01-25 13:52:00,26.0,19.0,30.24,East,87,0.0,3.0,73,0.00,,,0.00,,2013-01-25 18:52:00,
2013-01-25 14:03:00,26.0,18.0,30.23,East,87,0.0,0.0,71,0.00,,,0.00,,2013-01-25 19:03:00,
2013-01-25 14:12:00,26.0,18.0,30.23,East,87,0.0,0.0,71,0.00,,,0.00,,2013-01-25 19:12:00,
2013-01-25 14:22:00,26.0,18.0,30.22,East,87,0.0,0.0,72,0.00,,,0.00,,2013-01-25 19:22:00,
2013-01-25 14:32:00,26.0,19.0,30.23,West,278,1.0,4.0,75,0.00,,,0.00,,2013-01-25 19:32:00,
2013-01-25 14:42:00,26.0,19.0,30.23,West,278,1.0,4.0,75,0.00,,,0.00,,2013-01-25 19:42:00,
2013-01-25 14:53:00,26.0,20.0,30.20,NW,305,0.0,0.0,78,0.00,,,0.00,,2013-01-25 19:53:00,
2013-01-25 15:03:00,26.0,22.0,30.20,NW,305,0.0,0.0,83,0.00,,,0.00,,2013-01-25 20:03:00,
2013-01-25 15:12:00,26.0,22.0,30.20,NW,305,0.0,0.0,83,0.00,,,0.00,,2013-01-25 20:12:00,
2013-01-25 15:23:00,25.0,22.0,30.19,NW,305,0.0,0.0,89,0.00,,,0.00,,2013-01-25 20:23:00,
2013-01-25 15:32:00,24.0,23.0,30.19,SSW,200,0.0,0.0,95,0.01,,,0.00,,2013-01-25 20:32:00,
2013-01-25 15:42:00,24.0,23.0,30.19,SSW,200,0.0,0.0,95,0.01,,,0.00,,2013-01-25 20:42:00,
2013-01-25 15:53:00,25.0,25.0,30.17,SSW,200,0.0,0.0,99,0.01,,,0.00,,2013-01-25 20:53:00,
2013-01-25 16:02:00,24.0,24.0,30.17,SSW,200,0.0,0.0,100,0.01,,,0.00,,2013-01-25 21:02:00,
2013-01-25 16:12:00,24.0,24.0,30.17,SSW,200,0.0,0.0,100,0.01,,,0.00,,2013-01-25 21:12:00,
2013-01-25 16:23:00,24.0,24.0,30.17,SSW,203,0.0,6.0,100,0.01,,,0.00,,2013-01-25 21:23:00,
2013-01-25 16:33:00,24.0,24.0,30.16,East,100,0.0,9.0,100,0.00,,,0.00,,2013-01-25 21:33:00,
2013-01-25 16:42:00,24.0,24.0,30.16,East,100,0.0,9.0,100,0.00,,,0.00,,2013-01-25 21:42:00,
2013-01-25 16:52:00,25.0,25.0,30.17,WSW,255,0.0,3.0,100,0.00,,,0.00,,2013-01-25 21:52:00,
2013-01-25 17:03:00,25.0,25.0,30.16,WSW,255,0.0,0.0,100,0.00,,,0.00,,2013-01-25 22:03:00,
2013-01-25 17:12:00,25.0,25.0,30.15,South,180,0.0,5.0,100,0.00,,,0.00,,2013-01-25 22:12:00,
2013-01-25 17:22:00,25.0,25.0,30.15,South,180,0.0,5.0,100,0.00,,,0.00,,2013-01-25 22:22:00,
2013-01-25 17:33:00,25.0,25.0,30.16,West,266,0.0,1.0,100,0.00,,,0.00,,2013-01-25 22:33:00,
2013-01-25 17:42:00,25.0,25.0,30.16,West,266,0.0,1.0,100,0.00,,,0.00,,2013-01-25 22:42:00,
2013-01-25 17:53:00,25.0,25.0,30.16,SW,224,0.0,4.0,100,0.00,,,0.00,,2013-01-25 22:53:00,
2013-01-25 18:02:00,25.0,25.0,30.15,SSW,203,1.0,3.0,100,0.00,,,0.00,,2013-01-25 23:02:00,
2013-01-25 18:12:00,25.0,25.0,30.15,SSW,203,1.0,3.0,100,0.00,,,0.00,,2013-01-25 23:12:00,
2013-01-25 18:22:00,26.0,26.0,30.16,South,173,0.0,4.0,100,0.00,,,0.00,,2013-01-25 23:22:00,
2013-01-25 18:32:00,26.0,26.0,30.16,North,359,0.0,4.0,100,0.00,,,0.00,,2013-01-25 23:32:00,
2013-01-25 18:42:00,26.0,26.0,30.16,North,359,0.0,4.0,100,0.00,,,0.00,,2013-01-25 23:42:00,
2013-01-25 18:53:00,26.0,26.0,30.16,North,359,0.0,5.0,100,0.00,,,0.00,,2013-01-25 23:53:00,
2013-01-25 19:02:00,26.0,26.0,30.17,North,359,0.0,3.0,100,0.00,,,0.00,,2013-01-26 00:02:00,
2013-01-25 19:11:00,26.0,26.0,30.17,North,359,0.0,3.0,100,0.00,,,0.00,,2013-01-26 00:11:00,
2013-01-25 19:22:00,26.0,26.0,30.16,North,359,0.0,0.0,100,0.00,,,0.00,,2013-01-26 00:22:00,
2013-01-25 19:32:00,26.0,26.0,30.16,North,359,0.0,2.0,100,0.00,,,0.00,,2013-01-26 00:32:00,
2013-01-25 19:42:00,26.0,26.0,30.16,North,359,0.0,2.0,100,0.00,,,0.00,,2013-01-26 00:42:00,
2013-01-25 19:53:00,26.0,26.0,30.16,North,359,0.0,2.0,100,0.00,,,0.00,,2013-01-26 00:53:00,
2013-01-25 20:02:00,26.0,26.0,30.16,North,359,0.0,0.0,100,0.00,,,0.00,,2013-01-26 01:02:00,
2013-01-25 20:11:00,26.0,26.0,30.16,North,359,0.0,0.0,100,0.00,,,0.00,,2013-01-26 01:11:00,
2013-01-25 20:22:00,26.0,26.0,30.16,North,359,0.0,0.0,100,0.00,,,0.00,,2013-01-26 01:22:00,
2013-01-25 20:32:00,26.0,26.0,30.16,West,271,0.0,3.0,100,0.00,,,0.00,,2013-01-26 01:32:00,
2013-01-25 20:42:00,26.0,26.0,30.16,West,271,0.0,3.0,100,0.00,,,0.00,,2013-01-26 01:42:00,
2013-01-25 20:52:00,26.0,26.0,30.15,West,271,0.0,0.0,100,0.00,,,0.00,,2013-01-26 01:52:00,
2013-01-25 21:01:00,27.0,27.0,30.15,West,271,0.0,0.0,100,0.00,,,0.00,,2013-01-26 02:01:00,
2013-01-25 21:11:00,27.0,27.0,30.15,West,271,0.0,0.0,100,0.00,,,0.00,,2013-01-26 02:11:00,
2013-01-25 21:22:00,27.0,27.0,30.15,West,271,0.0,0.0,100,0.00,,,0.00,,2013-01-26 02:22:00,
2013-01-25 21:32:00,26.0,26.0,30.16,West,281,0.0,3.0,100,0.00,,,0.00,,2013-01-26 02:32:00,
2013-01-25 21:42:00,26.0,26.0,30.16,West,281,0.0,3.0,100,0.00,,,0.00,,2013-01-26 02:42:00,
2013-01-25 21:52:00,26.0,26.0,30.14,West,281,0.0,0.0,100,0.00,,,0.00,,2013-01-26 02:52:00,
2013-01-25 22:02:00,26.0,26.0,30.15,WNW,283,0.0,1.0,100,0.00,,,0.00,,2013-01-26 03:02:00,
2013-01-25 22:11:00,26.0,26.0,30.15,WNW,283,0.0,1.0,100,0.00,,,0.00,,2013-01-26 03:11:00,
2013-01-25 22:22:00,26.0,26.0,30.15,North,359,0.0,0.0,100,0.00,,,0.00,,2013-01-26 03:22:00,
2013-01-25 22:32:00,26.0,26.0,30.15,WSW,250,0.0,4.0,100,0.00,,,0.00,,2013-01-26 03:32:00,
2013-01-25 22:43:00,26.0,26.0,30.15,WSW,250,0.0,4.0,100,0.00,,,0.00,,2013-01-26 03:43:00,
2013-01-25 22:52:00,25.0,25.0,30.14,WSW,257,1.0,4.0,100,0.00,,,0.00,,2013-01-26 03:52:00,
2013-01-25 23:02:00,25.0,25.0,30.14,West,263,1.0,4.0,100,0.00,,,0.00,,2013-01-26 04:02:00,
2013-01-25 23:12:00,25.0,25.0,30.14,West,263,1.0,4.0,100,0.00,,,0.00,,2013-01-26 04:12:00,
2013-01-25 23:21:00,25.0,25.0,30.14,SW,221,1.0,3.0,100,0.00,,,0.00,,2013-01-26 04:21:00,
2013-01-25 23:32:00,25.0,25.0,30.14,SW,232,0.0,0.0,100,0.00,,,0.00,,2013-01-26 04:32:00,
2013-01-25 23:42:00,25.0,25.0,30.14,SW,232,0.0,0.0,100,0.00,,,0.00,,2013-01-26 04:42:00,
2013-01-25 23:52:00,25.0,25.0,30.14,SW,232,0.0,0.0,100,0.00,,,0.00,,2013-01-26 04:52:00,